createdAt,value
2024-01-06T00:01:47.972Z,10.70
2024-01-06T00:04:17.704Z,11.90
2024-01-06T00:06:48.517Z,11.90
2024-01-06T00:09:18.972Z,14.10
2024-01-06T00:14:19.355Z,10.60
2024-01-06T00:16:50.365Z,8.90
2024-01-06T00:19:20.501Z,8.30
2024-01-06T00:21:50.333Z,10.00
2024-01-06T00:24:19.493Z,9.10
2024-01-06T00:26:49.305Z,8.90
2024-01-06T00:29:19.492Z,8.70
2024-01-06T00:34:18.737Z,11.40
2024-01-06T00:36:48.448Z,27.60
2024-01-06T00:39:18.276Z,19.50
2024-01-06T00:41:49.581Z,19.30
2024-01-06T00:44:20.087Z,16.30
2024-01-06T00:46:50.337Z,13.00
2024-01-06T00:49:21.073Z,11.20
2024-01-06T00:54:20.990Z,15.50
2024-01-06T00:59:21.159Z,11.80
2024-01-06T01:01:51.403Z,12.70
2024-01-06T01:09:22.517Z,10.40
2024-01-06T01:11:53.090Z,9.40
2024-01-06T01:14:24.906Z,9.00
2024-01-06T01:16:55.951Z,10.70
2024-01-06T01:19:26.555Z,9.50
2024-01-06T01:21:57.623Z,11.60
2024-01-06T01:24:28.260Z,12.90
2024-01-06T01:26:59.392Z,11.50
2024-01-06T01:29:29.313Z,11.60
2024-01-06T01:31:59.262Z,12.80
2024-01-06T01:34:30.359Z,11.20
2024-01-06T01:37:02.506Z,10.80
2024-01-06T01:39:33.017Z,10.00
2024-01-06T01:42:03.524Z,8.70
2024-01-06T01:47:07.141Z,9.80
2024-01-06T01:49:38.276Z,12.90
2024-01-06T01:52:09.999Z,13.80
2024-01-06T01:54:40.247Z,11.10
2024-01-06T01:57:13.574Z,11.90
2024-01-06T01:59:45.039Z,11.80
2024-01-06T02:02:17.212Z,11.00
2024-01-06T02:04:48.578Z,9.50
2024-01-06T02:07:20.183Z,9.40
2024-01-06T02:09:52.734Z,8.10
2024-01-06T02:12:25.424Z,7.20
2024-01-06T02:14:55.921Z,10.20
2024-01-06T02:17:28.103Z,8.70
2024-01-06T02:20:00.462Z,9.30
2024-01-06T02:22:33.953Z,8.70
2024-01-06T02:25:04.717Z,10.00
2024-01-06T02:27:36.793Z,8.10
2024-01-06T02:30:11.255Z,9.20
2024-01-06T02:32:44.751Z,10.00
2024-01-06T02:35:15.937Z,7.80
2024-01-06T02:40:19.816Z,5.90
2024-01-06T02:42:50.929Z,8.10
2024-01-06T02:45:21.692Z,7.30
2024-01-06T02:47:52.231Z,7.50
2024-01-06T02:50:24.757Z,8.10
2024-01-06T02:52:55.918Z,8.50
2024-01-06T02:55:27.302Z,7.40
2024-01-06T02:57:58.030Z,7.90
2024-01-06T03:00:29.151Z,8.60
2024-01-06T03:02:59.885Z,9.00
2024-01-06T03:05:30.688Z,7.00
2024-01-06T03:08:02.033Z,7.20
2024-01-06T03:10:34.040Z,7.80
2024-01-06T03:13:05.569Z,6.40
2024-01-06T03:15:36.344Z,7.40
2024-01-06T03:18:07.449Z,6.50
2024-01-06T03:20:40.964Z,6.10
2024-01-06T03:23:13.657Z,7.10
2024-01-06T03:25:45.526Z,5.50
2024-01-06T03:28:17.880Z,7.30
2024-01-06T03:30:48.932Z,7.80
2024-01-06T03:33:22.924Z,7.80
2024-01-06T03:35:54.490Z,7.60
2024-01-06T03:38:24.201Z,8.00
2024-01-06T03:40:55.311Z,7.60
2024-01-06T03:43:29.212Z,8.40
2024-01-06T03:46:01.969Z,7.90
2024-01-06T03:48:32.624Z,7.80
2024-01-06T03:51:04.352Z,7.80
2024-01-06T03:53:38.197Z,6.70
2024-01-06T03:56:10.716Z,6.60
2024-01-06T03:58:50.488Z,6.50
2024-01-06T04:01:23.144Z,6.80
2024-01-06T04:03:53.924Z,8.20
2024-01-06T04:06:26.507Z,8.00
2024-01-06T04:08:58.171Z,9.40
2024-01-06T04:11:29.468Z,8.70
2024-01-06T04:14:00.724Z,10.10
2024-01-06T04:16:35.711Z,10.60
2024-01-06T04:19:09.524Z,9.60
2024-01-06T04:21:40.371Z,10.10
2024-01-06T04:24:11.198Z,8.90
2024-01-06T04:29:10.468Z,8.30
2024-01-06T04:31:41.110Z,10.20
2024-01-06T04:34:11.950Z,14.40
2024-01-06T04:36:41.983Z,11.50
2024-01-06T04:39:14.686Z,10.80
2024-01-06T04:41:44.942Z,9.00
2024-01-06T04:44:14.775Z,8.20
2024-01-06T04:49:19.842Z,9.80
2024-01-06T04:51:50.946Z,10.80
2024-01-06T04:54:23.311Z,8.30
2024-01-06T04:56:54.933Z,9.30
2024-01-06T04:59:25.774Z,8.50
2024-01-06T05:01:58.139Z,7.30
2024-01-06T05:04:31.008Z,7.80
2024-01-06T05:07:02.094Z,7.80
2024-01-06T05:09:35.225Z,8.70
2024-01-06T05:12:07.772Z,7.60
2024-01-06T05:14:38.806Z,8.00
2024-01-06T05:17:11.721Z,7.50
2024-01-06T05:19:42.189Z,7.20
2024-01-06T05:22:13.047Z,7.30
2024-01-06T05:27:14.243Z,8.20
2024-01-06T05:29:44.688Z,9.90
2024-01-06T05:32:15.813Z,9.10
2024-01-06T05:34:48.136Z,13.70
2024-01-06T05:37:19.971Z,11.30
2024-01-06T05:39:50.807Z,14.40
2024-01-06T05:42:20.273Z,14.10
2024-01-06T05:44:50.209Z,11.10
2024-01-06T05:47:20.752Z,11.80
2024-01-06T05:49:52.864Z,10.80
2024-01-06T05:52:22.920Z,10.80
2024-01-06T05:54:53.553Z,11.60
2024-01-06T05:57:23.895Z,9.50
2024-01-06T06:04:54.860Z,7.40
2024-01-06T06:07:25.387Z,9.50
2024-01-06T06:09:56.265Z,11.10
2024-01-06T06:12:26.765Z,8.80
2024-01-06T06:14:57.978Z,12.60
2024-01-06T06:17:28.443Z,17.90
2024-01-06T06:19:59.453Z,15.80
2024-01-06T06:22:32.260Z,16.20
2024-01-06T06:25:03.630Z,16.60
2024-01-06T06:27:34.575Z,16.40
2024-01-06T06:30:05.154Z,19.90
2024-01-06T06:32:35.686Z,18.00
2024-01-06T06:35:06.197Z,19.40
2024-01-06T06:37:36.501Z,16.70
2024-01-06T06:40:07.735Z,18.60
2024-01-06T06:42:37.382Z,18.60
2024-01-06T06:45:07.522Z,16.70
2024-01-06T06:47:36.727Z,16.00
2024-01-06T06:50:07.090Z,15.80
2024-01-06T06:52:36.325Z,14.30
2024-01-06T06:55:05.613Z,18.90
2024-01-06T06:57:35.543Z,16.70
2024-01-06T07:00:05.154Z,16.10
2024-01-06T07:02:34.771Z,15.30
2024-01-06T07:05:04.547Z,24.20
2024-01-06T07:07:35.273Z,20.60
2024-01-06T07:10:06.710Z,16.40
2024-01-06T07:12:35.906Z,20.60
2024-01-06T07:15:07.748Z,17.00
2024-01-06T07:17:37.648Z,16.30
2024-01-06T07:20:09.217Z,23.90
2024-01-06T07:22:38.655Z,17.50
2024-01-06T07:25:08.843Z,31.50
2024-01-06T07:30:09.853Z,17.50
2024-01-06T07:32:39.865Z,19.60
2024-01-06T07:35:09.960Z,15.60
2024-01-06T07:37:40.963Z,17.90
2024-01-06T07:40:10.605Z,16.10
2024-01-06T07:42:39.687Z,13.90
2024-01-06T07:45:09.629Z,17.60
2024-01-06T07:47:40.661Z,13.90
2024-01-06T07:50:11.295Z,13.70
2024-01-06T07:52:40.515Z,15.80
2024-01-06T07:55:09.899Z,17.70
2024-01-06T07:57:39.739Z,16.90
2024-01-06T08:00:10.237Z,14.40
2024-01-06T08:02:43.841Z,16.90
2024-01-06T08:05:13.958Z,18.90
2024-01-06T08:07:43.302Z,16.80
2024-01-06T08:10:12.865Z,15.80
2024-01-06T08:12:42.401Z,13.00
2024-01-06T08:15:12.043Z,12.60
2024-01-06T08:17:42.449Z,12.80
2024-01-06T08:20:12.404Z,12.00
2024-01-06T08:22:41.404Z,16.20
2024-01-06T08:25:10.423Z,17.60
2024-01-06T08:27:39.467Z,16.10
2024-01-06T08:30:09.652Z,18.60
2024-01-06T08:32:39.182Z,17.90
2024-01-06T08:35:09.026Z,20.40
2024-01-06T08:37:38.130Z,22.50
2024-01-06T08:40:08.816Z,19.30
2024-01-06T08:42:38.498Z,18.10
2024-01-06T08:45:08.080Z,18.40
2024-01-06T08:47:37.013Z,20.30
2024-01-06T08:50:07.279Z,17.50
2024-01-06T08:55:05.853Z,15.20
2024-01-06T08:57:35.236Z,15.90
2024-01-06T09:00:05.973Z,14.00
2024-01-06T09:02:35.244Z,26.80
2024-01-06T09:05:04.260Z,23.40
2024-01-06T09:07:33.127Z,26.60
2024-01-06T09:10:02.176Z,30.60
2024-01-06T09:12:31.546Z,32.10
2024-01-06T09:15:02.647Z,29.40
2024-01-06T09:17:33.420Z,31.60
2024-01-06T09:20:03.297Z,32.20
2024-01-06T09:22:32.689Z,32.00
2024-01-06T09:25:01.772Z,36.20
2024-01-06T09:27:31.470Z,34.20
2024-01-06T09:30:00.613Z,33.80
2024-01-06T09:32:29.505Z,32.80
2024-01-06T09:34:58.730Z,35.60
2024-01-06T09:37:28.081Z,31.30
2024-01-06T09:39:57.502Z,28.90
2024-01-06T09:42:27.729Z,25.70
2024-01-06T09:44:56.749Z,29.30
2024-01-06T09:47:30.489Z,28.00
2024-01-06T09:50:06.065Z,25.90
2024-01-06T09:52:38.330Z,28.20
2024-01-06T09:55:13.258Z,21.80
2024-01-06T09:57:42.059Z,21.10
2024-01-06T10:00:12.506Z,21.50
2024-01-06T10:02:42.398Z,17.90
2024-01-06T10:05:13.771Z,18.20
2024-01-06T10:07:47.180Z,17.30
2024-01-06T10:10:17.138Z,16.40
2024-01-06T10:12:46.221Z,18.20
2024-01-06T10:15:15.876Z,16.40
2024-01-06T10:17:45.351Z,14.70
2024-01-06T10:20:15.593Z,14.70
2024-01-06T10:22:45.904Z,14.20
2024-01-06T10:25:15.511Z,13.20
2024-01-06T10:27:44.482Z,14.20
2024-01-06T10:30:19.872Z,13.70
2024-01-06T10:32:49.208Z,11.80
2024-01-06T10:35:20.175Z,11.50
2024-01-06T10:37:50.969Z,13.30
2024-01-06T10:40:20.212Z,14.40
2024-01-06T10:42:49.771Z,13.00
2024-01-06T10:45:19.578Z,14.60
2024-01-06T10:47:50.695Z,12.20
2024-01-06T10:50:20.943Z,10.90
2024-01-06T10:52:50.308Z,12.90
2024-01-06T10:55:21.967Z,13.00
2024-01-06T10:57:53.051Z,11.30
2024-01-06T11:00:23.320Z,10.80
2024-01-06T11:02:54.144Z,10.70
2024-01-06T11:05:24.083Z,9.80
2024-01-06T11:07:57.951Z,9.20
2024-01-06T11:10:29.099Z,8.10
2024-01-06T11:13:14.017Z,7.70
2024-01-06T11:15:45.894Z,7.50
2024-01-06T11:18:41.930Z,5.30
2024-01-06T11:21:19.593Z,5.90
2024-01-06T11:24:21.883Z,6.50
2024-01-06T11:26:53.314Z,6.00
2024-01-06T11:29:22.589Z,5.40
2024-01-06T11:34:39.508Z,8.10
2024-01-06T11:37:10.861Z,6.90
2024-01-06T11:39:42.926Z,6.80
2024-01-06T11:42:14.041Z,6.10
2024-01-06T11:44:51.666Z,6.40
2024-01-06T11:47:25.004Z,6.10
2024-01-06T11:49:57.142Z,5.00
2024-01-06T11:52:27.148Z,5.30
2024-01-06T11:54:57.524Z,9.70
2024-01-06T11:57:30.942Z,8.30
2024-01-06T11:59:59.776Z,9.30
2024-01-06T12:02:29.446Z,12.90
2024-01-06T12:04:58.592Z,10.80
2024-01-06T12:07:27.831Z,11.20
2024-01-06T12:10:04.799Z,16.70
2024-01-06T12:12:33.951Z,32.90
2024-01-06T12:15:03.653Z,27.00
2024-01-06T12:17:33.054Z,22.50
2024-01-06T12:20:03.153Z,19.70
2024-01-06T12:25:01.387Z,7.30
2024-01-06T12:27:30.587Z,6.30
2024-01-06T12:29:59.983Z,5.70
2024-01-06T12:32:30.631Z,5.30
2024-01-06T12:35:01.236Z,5.50
2024-01-06T12:37:30.230Z,5.80
2024-01-06T12:39:59.616Z,4.50
2024-01-06T12:42:28.962Z,4.90
2024-01-06T12:44:58.015Z,6.00
2024-01-06T12:47:27.836Z,5.30
2024-01-06T12:49:56.618Z,5.00
2024-01-06T12:52:25.818Z,5.80
2024-01-06T12:54:55.276Z,5.20
2024-01-06T12:57:24.779Z,7.20
2024-01-06T12:59:54.540Z,7.70
2024-01-06T13:02:23.641Z,7.10
2024-01-06T13:04:52.695Z,8.20
2024-01-06T13:07:21.818Z,8.50
2024-01-06T13:09:52.032Z,9.10
2024-01-06T13:12:21.953Z,8.20
2024-01-06T13:14:52.535Z,8.80
2024-01-06T13:17:21.509Z,9.20
2024-01-06T13:19:51.026Z,7.70
2024-01-06T13:22:23.651Z,9.10
2024-01-06T13:24:54.423Z,9.60
2024-01-06T13:27:24.070Z,10.80
2024-01-06T13:29:53.498Z,9.70
2024-01-06T13:32:24.035Z,10.10
2024-01-06T13:34:56.719Z,9.00
2024-01-06T13:37:26.417Z,10.20
2024-01-06T13:39:55.701Z,8.60
2024-01-06T13:42:25.468Z,7.10
2024-01-06T13:44:54.833Z,9.10
2024-01-06T13:47:24.391Z,7.60
2024-01-06T13:49:53.712Z,7.40
2024-01-06T13:52:22.933Z,7.20
2024-01-06T13:54:52.702Z,6.50
2024-01-06T13:57:22.047Z,6.30
2024-01-06T13:59:50.929Z,5.50
2024-01-06T14:02:19.938Z,6.10
2024-01-06T14:04:49.551Z,6.60
2024-01-06T14:07:23.399Z,6.20
2024-01-06T14:09:52.771Z,6.70
2024-01-06T14:12:22.102Z,8.30
2024-01-06T14:14:51.469Z,9.00
2024-01-06T14:17:20.555Z,10.40
2024-01-06T14:19:49.918Z,11.30
2024-01-06T14:22:19.967Z,11.30
2024-01-06T14:24:49.027Z,11.90
2024-01-06T14:27:18.387Z,11.20
2024-01-06T14:29:48.167Z,8.80
2024-01-06T14:32:17.167Z,9.10
2024-01-06T14:34:46.758Z,8.90
2024-01-06T14:37:16.092Z,8.20
2024-01-06T14:39:44.994Z,8.20
2024-01-06T14:42:14.050Z,7.30
2024-01-06T14:44:42.958Z,7.70
2024-01-06T14:47:14.196Z,7.80
2024-01-06T14:49:43.541Z,7.50
2024-01-06T14:52:13.113Z,6.90
2024-01-06T14:54:42.022Z,8.80
2024-01-06T14:57:11.823Z,8.00
2024-01-06T14:59:40.695Z,9.40
2024-01-06T15:02:10.303Z,9.10
2024-01-06T15:04:40.416Z,9.10
2024-01-06T15:09:45.503Z,9.30
2024-01-06T15:12:14.764Z,13.10
2024-01-06T15:14:43.948Z,19.50
2024-01-06T15:17:12.969Z,14.50
2024-01-06T15:19:42.564Z,12.80
2024-01-06T15:22:11.577Z,14.90
2024-01-06T15:24:41.388Z,15.20
2024-01-06T15:27:10.266Z,15.60
2024-01-06T15:29:39.489Z,17.70
2024-01-06T15:32:09.274Z,17.70
2024-01-06T15:34:38.139Z,17.90
2024-01-06T15:37:07.095Z,19.20
2024-01-06T15:39:36.090Z,21.70
2024-01-06T15:42:06.075Z,26.30
2024-01-06T15:44:35.373Z,26.60
2024-01-06T15:47:04.702Z,27.50
2024-01-06T15:49:33.862Z,23.70
2024-01-06T15:52:05.154Z,23.50
2024-01-06T15:54:35.175Z,23.50
2024-01-06T15:57:04.422Z,25.40
2024-01-06T15:59:33.229Z,23.60
2024-01-06T16:02:02.479Z,20.60
2024-01-06T16:04:32.348Z,22.90
2024-01-06T16:07:01.278Z,25.20
2024-01-06T16:09:31.054Z,25.10
2024-01-06T16:12:00.160Z,22.60
2024-01-06T16:14:32.002Z,20.60
2024-01-06T16:17:02.513Z,19.90
2024-01-06T16:19:31.508Z,16.60
2024-01-06T16:22:14.342Z,18.00
2024-01-06T16:24:46.633Z,18.10
2024-01-06T16:27:15.588Z,15.90
2024-01-06T16:29:44.577Z,15.00
2024-01-06T16:32:13.471Z,12.80
2024-01-06T16:34:43.894Z,16.00
2024-01-06T16:37:13.305Z,16.50
2024-01-06T16:39:42.194Z,17.40
2024-01-06T16:42:10.972Z,14.70
2024-01-06T16:44:39.964Z,12.90
2024-01-06T16:47:08.873Z,10.80
2024-01-06T16:49:38.118Z,11.40
2024-01-06T16:52:07.278Z,11.10
2024-01-06T16:54:36.601Z,11.50
2024-01-06T16:57:05.853Z,15.70
2024-01-06T16:59:35.466Z,12.40
2024-01-06T17:02:05.262Z,12.40
2024-01-06T17:04:35.775Z,13.40
2024-01-06T17:07:05.944Z,10.90
2024-01-06T17:12:06.154Z,14.80
2024-01-06T17:14:34.788Z,15.70
2024-01-06T17:17:04.682Z,14.20
2024-01-06T17:19:34.798Z,16.10
2024-01-06T17:22:04.079Z,15.10
2024-01-06T17:24:33.934Z,15.90
2024-01-06T17:29:32.506Z,19.80
2024-01-06T17:32:01.372Z,18.00
2024-01-06T17:34:30.986Z,18.40
2024-01-06T17:37:00.525Z,15.20
2024-01-06T17:39:29.624Z,13.90
2024-01-06T17:42:00.420Z,21.90
2024-01-06T17:44:31.068Z,17.40
2024-01-06T17:47:00.350Z,12.70
2024-01-06T17:49:29.745Z,13.60
2024-01-06T17:51:58.794Z,13.60
2024-01-06T17:54:28.774Z,12.00
2024-01-06T17:56:58.750Z,12.20
2024-01-06T17:59:29.663Z,11.80
2024-01-06T18:01:59.741Z,13.80
2024-01-06T18:04:29.396Z,13.40
2024-01-06T18:06:58.516Z,13.20
2024-01-06T18:09:29.534Z,13.90
2024-01-06T18:11:58.995Z,12.70
2024-01-06T18:14:32.723Z,12.90
2024-01-06T18:17:02.094Z,13.60
2024-01-06T18:19:31.155Z,12.00
2024-01-06T18:22:00.631Z,20.00
2024-01-06T18:24:30.686Z,16.20
2024-01-06T18:27:00.384Z,16.40
2024-01-06T18:31:59.300Z,29.70
2024-01-06T18:34:28.547Z,26.80
2024-01-06T18:36:58.046Z,26.30
2024-01-06T18:39:27.158Z,27.10
2024-01-06T18:41:57.032Z,23.40
2024-01-06T18:44:25.924Z,20.90
2024-01-06T18:46:54.708Z,19.30
2024-01-06T18:49:23.662Z,21.00
2024-01-06T18:51:52.936Z,18.40
2024-01-06T18:54:30.782Z,19.70
2024-01-06T18:57:04.708Z,16.60
2024-01-06T18:59:34.205Z,14.50
2024-01-06T19:02:02.902Z,14.40
2024-01-06T19:04:31.689Z,17.00
2024-01-06T19:07:00.670Z,15.60
2024-01-06T19:09:30.144Z,15.60
2024-01-06T19:12:00.612Z,15.80
2024-01-06T19:16:58.428Z,19.50
2024-01-06T19:19:27.394Z,21.70
2024-01-06T19:21:56.838Z,25.20
2024-01-06T19:24:32.277Z,19.40
2024-01-06T19:27:05.530Z,19.20
2024-01-06T19:29:34.629Z,18.10
2024-01-06T19:32:06.494Z,17.40
2024-01-06T19:34:37.141Z,21.90
2024-01-06T19:37:06.579Z,17.00
2024-01-06T19:39:36.059Z,16.70
2024-01-06T19:42:06.099Z,16.20
2024-01-06T19:44:35.032Z,15.30
2024-01-06T19:47:04.533Z,16.00
2024-01-06T19:49:34.232Z,19.00
2024-01-06T19:52:03.453Z,19.20
2024-01-06T19:54:37.964Z,23.20
2024-01-06T19:57:07.446Z,19.40
2024-01-06T19:59:36.572Z,20.60
2024-01-06T20:02:06.176Z,23.20
2024-01-06T20:04:35.122Z,23.30
2024-01-06T20:07:04.600Z,18.70
2024-01-06T20:09:33.700Z,19.40
2024-01-06T20:12:03.055Z,15.90
2024-01-06T20:14:31.743Z,17.20
2024-01-06T20:17:00.440Z,20.10
2024-01-06T20:19:29.665Z,16.30
2024-01-06T20:21:58.356Z,14.20
2024-01-06T20:24:27.402Z,15.10
2024-01-06T20:26:58.476Z,14.00
2024-01-06T20:29:27.658Z,14.10
2024-01-06T20:31:56.801Z,24.90
2024-01-06T20:34:26.859Z,34.80
2024-01-06T20:36:55.811Z,35.10
2024-01-06T20:39:26.204Z,31.30
2024-01-06T20:41:55.281Z,60.10
2024-01-06T20:44:23.984Z,47.40
2024-01-06T20:46:55.114Z,37.20
2024-01-06T20:49:28.896Z,34.60
2024-01-06T20:51:59.147Z,35.10
2024-01-06T20:54:28.485Z,38.40
2024-01-06T20:56:57.437Z,32.40
2024-01-06T20:59:29.822Z,26.50
2024-01-06T21:01:58.824Z,19.70
2024-01-06T21:04:28.523Z,18.30
2024-01-06T21:06:57.697Z,18.20
2024-01-06T21:09:27.670Z,15.50
2024-01-06T21:11:57.330Z,18.60
2024-01-06T21:14:26.530Z,15.50
2024-01-06T21:16:56.788Z,15.40
2024-01-06T21:19:29.541Z,13.40
2024-01-06T21:21:59.485Z,13.40
2024-01-06T21:24:28.453Z,12.80
2024-01-06T21:26:57.845Z,14.20
2024-01-06T21:29:27.441Z,12.00
2024-01-06T21:31:56.263Z,15.60
2024-01-06T21:34:26.003Z,16.30
2024-01-06T21:36:55.483Z,15.10
2024-01-06T21:39:24.568Z,25.80
2024-01-06T21:41:53.646Z,25.40
2024-01-06T21:44:24.494Z,37.50
2024-01-06T21:46:53.679Z,34.70
2024-01-06T21:49:23.330Z,30.70
2024-01-06T21:51:57.105Z,32.00
2024-01-06T21:54:26.387Z,26.10
2024-01-06T21:56:55.372Z,27.00
2024-01-06T21:59:24.368Z,26.30
2024-01-06T22:01:54.536Z,27.10
2024-01-06T22:04:25.175Z,23.30
2024-01-06T22:06:54.448Z,20.90
2024-01-06T22:09:24.779Z,18.00
2024-01-06T22:11:54.048Z,16.10
2024-01-06T22:14:25.288Z,14.70
2024-01-06T22:16:54.202Z,13.20
2024-01-06T22:19:23.574Z,11.90
2024-01-06T22:21:52.739Z,16.50
2024-01-06T22:24:23.981Z,17.50
2024-01-06T22:26:54.165Z,16.00
2024-01-06T22:29:23.461Z,20.10
2024-01-06T22:31:52.611Z,20.60
2024-01-06T22:34:22.212Z,22.80
2024-01-06T22:36:51.379Z,24.30
2024-01-06T22:39:26.849Z,23.60
2024-01-06T22:41:56.395Z,21.60
2024-01-06T22:44:25.592Z,19.00
2024-01-06T22:46:55.825Z,17.40
2024-01-06T22:49:26.291Z,19.20
2024-01-06T22:51:55.454Z,19.70
2024-01-06T22:54:25.222Z,21.90
2024-01-06T22:56:54.917Z,20.20
2024-01-06T22:59:25.211Z,26.50
2024-01-06T23:01:55.954Z,28.80
2024-01-06T23:04:25.474Z,29.20
2024-01-06T23:06:55.861Z,30.50
2024-01-06T23:09:25.763Z,25.50
2024-01-06T23:11:54.867Z,26.80
2024-01-06T23:14:24.183Z,22.40
2024-01-06T23:16:53.725Z,22.40
2024-01-06T23:19:23.224Z,20.30
2024-01-06T23:21:53.575Z,19.70
2024-01-06T23:24:23.319Z,20.40
2024-01-06T23:26:52.719Z,19.30
2024-01-06T23:29:24.147Z,17.70
2024-01-06T23:31:54.654Z,17.10
2024-01-06T23:34:30.606Z,16.50
2024-01-06T23:37:10.600Z,14.90
2024-01-06T23:39:40.635Z,19.40
2024-01-06T23:42:11.370Z,16.70
2024-01-06T23:44:41.031Z,16.50
2024-01-06T23:47:10.450Z,16.20
2024-01-06T23:49:40.115Z,15.60
2024-01-06T23:54:42.691Z,12.90
2024-01-06T23:57:12.582Z,12.90
2024-01-06T23:59:42.610Z,12.50
